createdAt,value
2022-12-13T00:01:50.822Z,-1.20
2022-12-13T00:04:19.291Z,-1.40
2022-12-13T00:06:46.339Z,-1.40
2022-12-13T00:09:15.487Z,-1.50
2022-12-13T00:11:42.996Z,-1.50
2022-12-13T00:14:11.489Z,-1.60
2022-12-13T00:16:38.271Z,-1.60
2022-12-13T00:19:05.119Z,-1.70
2022-12-13T00:21:33.831Z,-1.60
2022-12-13T00:24:02.386Z,-1.70
2022-12-13T00:26:31.473Z,-1.70
2022-12-13T00:29:00.867Z,-1.70
2022-12-13T00:34:16.531Z,-1.70
2022-12-13T00:36:44.855Z,-1.70
2022-12-13T00:39:13.838Z,-1.70
2022-12-13T00:41:41.741Z,-1.70
2022-12-13T00:44:10.085Z,-1.70
2022-12-13T00:46:37.135Z,-1.40
2022-12-13T00:49:05.071Z,-1.60
2022-12-13T00:51:33.961Z,-1.70
2022-12-13T00:54:01.698Z,-1.70
2022-12-13T00:56:32.576Z,-1.70
2022-12-13T00:58:59.938Z,-1.80
2022-12-13T01:01:32.298Z,-1.80
2022-12-13T01:04:01.213Z,-1.80
2022-12-13T01:06:40.377Z,-1.70
2022-12-13T01:09:18.414Z,-1.80
2022-12-13T01:11:46.132Z,-1.80
2022-12-13T01:14:13.333Z,-1.80
2022-12-13T01:16:40.100Z,-1.80
2022-12-13T01:19:06.953Z,-1.90
2022-12-13T01:21:33.794Z,-1.90
2022-12-13T01:24:02.194Z,-2.00
2022-12-13T01:26:29.170Z,-2.00
2022-12-13T01:28:55.900Z,-2.00
2022-12-13T01:31:22.815Z,-2.00
2022-12-13T01:33:49.989Z,-2.00
2022-12-13T01:36:19.965Z,-2.10
2022-12-13T01:38:57.998Z,-2.00
2022-12-13T01:41:28.115Z,-2.10
2022-12-13T01:44:00.954Z,-2.20
2022-12-13T01:46:27.927Z,-2.20
2022-12-13T01:49:01.858Z,-2.20
2022-12-13T01:51:43.622Z,-2.20
2022-12-13T01:54:14.560Z,-2.10
2022-12-13T01:56:54.120Z,-2.10
2022-12-13T01:59:28.541Z,-2.10
2022-12-13T02:02:01.096Z,-2.10
2022-12-13T02:05:00.691Z,-2.10
2022-12-13T02:07:33.660Z,-2.10
2022-12-13T02:10:02.915Z,-2.10
2022-12-13T02:12:33.686Z,-2.10
2022-12-13T02:15:05.438Z,-2.00
2022-12-13T02:17:55.243Z,-2.10
2022-12-13T02:20:59.997Z,-2.10
2022-12-13T02:23:51.066Z,-2.00
2022-12-13T02:26:31.167Z,-2.10
2022-12-13T02:29:31.160Z,-2.00
2022-12-13T02:32:18.945Z,-2.10
2022-12-13T02:34:54.051Z,-2.10
2022-12-13T02:37:28.851Z,-2.20
2022-12-13T02:40:08.889Z,-2.20
2022-12-13T02:42:42.464Z,-2.20
2022-12-13T02:45:20.774Z,-2.40
2022-12-13T02:47:51.943Z,-2.20
2022-12-13T02:50:20.286Z,-2.20
2022-12-13T02:52:47.313Z,-2.20
2022-12-13T02:55:16.418Z,-2.20
2022-12-13T02:57:47.976Z,-2.20
2022-12-13T03:00:19.204Z,-2.20
2022-12-13T03:03:31.094Z,-2.20
2022-12-13T03:06:43.260Z,-2.20
2022-12-13T03:09:24.518Z,-2.20
2022-12-13T03:12:36.094Z,-2.20
2022-12-13T03:15:29.314Z,-2.20
2022-12-13T03:18:02.578Z,-2.00
2022-12-13T03:20:31.091Z,-2.20
2022-12-13T03:22:58.324Z,-2.00
2022-12-13T03:25:31.367Z,-2.20
2022-12-13T03:28:01.140Z,-2.30
2022-12-13T03:30:33.488Z,-2.30
2022-12-13T03:33:01.879Z,-2.30
2022-12-13T03:35:34.280Z,-2.30
2022-12-13T03:38:02.143Z,-2.30
2022-12-13T03:40:30.322Z,-2.20
2022-12-13T03:42:57.335Z,-2.30
2022-12-13T03:45:24.356Z,-2.30
2022-12-13T03:47:51.131Z,-2.30
2022-12-13T03:50:27.132Z,-2.30
2022-12-13T03:53:03.713Z,-2.40
2022-12-13T03:55:30.666Z,-2.40
2022-12-13T03:57:57.489Z,-2.40
2022-12-13T04:00:24.216Z,-2.40
2022-12-13T04:02:51.158Z,-2.50
2022-12-13T04:05:18.452Z,-2.40
2022-12-13T04:07:48.386Z,-2.40
2022-12-13T04:10:25.569Z,-2.50
2022-12-13T04:13:13.225Z,-2.50
2022-12-13T04:15:40.382Z,-2.50
2022-12-13T04:18:07.301Z,-2.50
2022-12-13T04:20:34.124Z,-2.60
2022-12-13T04:23:00.896Z,-2.60
2022-12-13T04:25:37.438Z,-2.50
2022-12-13T04:28:06.286Z,-2.50
2022-12-13T04:30:33.957Z,-2.50
2022-12-13T04:33:00.886Z,-2.50
2022-12-13T04:35:28.142Z,-2.40
2022-12-13T04:37:56.851Z,-2.60
2022-12-13T04:40:23.848Z,-2.60
2022-12-13T04:42:53.949Z,-2.60
2022-12-13T04:45:22.779Z,-2.60
2022-12-13T04:47:49.892Z,-2.40
2022-12-13T04:50:17.276Z,-2.60
2022-12-13T04:52:44.857Z,-2.50
2022-12-13T04:55:11.989Z,-2.50
2022-12-13T04:57:39.763Z,-2.50
2022-12-13T05:00:10.475Z,-2.60
2022-12-13T05:02:37.372Z,-2.60
2022-12-13T05:05:04.641Z,-2.60
2022-12-13T05:07:31.370Z,-2.70
2022-12-13T05:09:58.125Z,-2.70
2022-12-13T05:12:24.962Z,-2.80
2022-12-13T05:14:53.192Z,-2.70
2022-12-13T05:17:20.843Z,-2.70
2022-12-13T05:19:47.600Z,-2.80
2022-12-13T05:22:20.738Z,-2.70
2022-12-13T05:24:48.890Z,-2.80
2022-12-13T05:27:25.780Z,-2.70
2022-12-13T05:30:04.354Z,-2.80
2022-12-13T05:32:43.182Z,-2.70
2022-12-13T05:35:23.575Z,-2.70
2022-12-13T05:37:53.515Z,-2.60
2022-12-13T05:40:28.288Z,-2.70
2022-12-13T05:43:01.302Z,-2.50
2022-12-13T05:45:33.000Z,-2.70
2022-12-13T05:48:00.085Z,-2.70
2022-12-13T05:50:26.914Z,-2.80
2022-12-13T05:52:53.726Z,-2.70
2022-12-13T05:55:20.986Z,-2.80
2022-12-13T05:57:50.507Z,-2.80
2022-12-13T06:00:29.813Z,-2.80
2022-12-13T06:03:01.161Z,-2.80
2022-12-13T06:05:29.555Z,-2.80
2022-12-13T06:07:58.004Z,-2.90
2022-12-13T06:10:35.059Z,-2.90
2022-12-13T06:13:21.040Z,-2.90
2022-12-13T06:15:50.356Z,-2.90
2022-12-13T06:18:17.241Z,-2.90
2022-12-13T06:20:44.157Z,-2.90
2022-12-13T06:23:10.850Z,-2.90
2022-12-13T06:25:37.893Z,-2.90
2022-12-13T06:28:04.801Z,-2.90
2022-12-13T06:30:32.774Z,-2.60
2022-12-13T06:32:59.582Z,-2.60
2022-12-13T06:35:28.658Z,-2.60
2022-12-13T06:38:01.203Z,-2.70
2022-12-13T06:40:31.840Z,-2.80
2022-12-13T06:42:58.594Z,-2.80
2022-12-13T06:45:26.475Z,-2.80
2022-12-13T06:47:53.250Z,-2.90
2022-12-13T06:50:19.993Z,-2.90
2022-12-13T06:52:47.362Z,-2.80
2022-12-13T06:55:23.696Z,-2.80
2022-12-13T06:57:51.646Z,-2.90
2022-12-13T07:00:21.908Z,-2.80
2022-12-13T07:02:54.784Z,-2.80
2022-12-13T07:05:22.568Z,-2.80
2022-12-13T07:07:49.343Z,-2.80
2022-12-13T07:10:21.753Z,-2.80
2022-12-13T07:12:49.670Z,-2.80
2022-12-13T07:15:16.741Z,-2.80
2022-12-13T07:17:44.102Z,-2.80
2022-12-13T07:20:13.442Z,-2.90
2022-12-13T07:22:47.255Z,-2.90
2022-12-13T07:25:27.925Z,-2.90
2022-12-13T07:28:03.650Z,-2.80
2022-12-13T07:30:40.964Z,-2.90
2022-12-13T07:33:09.136Z,-2.90
2022-12-13T07:35:37.652Z,-2.90
2022-12-13T07:38:09.699Z,-2.90
2022-12-13T07:40:38.415Z,-2.90
2022-12-13T07:43:05.868Z,-3.00
2022-12-13T07:45:33.606Z,-2.90
2022-12-13T07:48:04.644Z,-2.90
2022-12-13T07:50:36.798Z,-2.90
2022-12-13T07:53:06.998Z,-2.80
2022-12-13T07:55:34.763Z,-2.80
2022-12-13T07:58:15.851Z,-2.80
2022-12-13T08:00:46.568Z,-2.80
2022-12-13T08:03:24.098Z,-2.70
2022-12-13T08:06:07.876Z,-2.70
2022-12-13T08:08:35.008Z,-2.60
2022-12-13T08:11:07.080Z,-2.50
2022-12-13T08:13:34.765Z,-2.50
2022-12-13T08:16:25.921Z,-1.70
2022-12-13T08:18:53.767Z,-2.30
2022-12-13T08:21:54.132Z,-2.30
2022-12-13T08:24:24.194Z,-2.30
2022-12-13T08:26:51.063Z,-2.20
2022-12-13T08:29:23.079Z,-2.20
2022-12-13T08:32:06.402Z,-2.10
2022-12-13T08:34:33.200Z,-2.10
2022-12-13T08:37:01.435Z,-2.10
2022-12-13T08:39:29.228Z,-2.20
2022-12-13T08:41:56.198Z,-1.70
2022-12-13T08:44:23.008Z,-2.20
2022-12-13T08:46:49.735Z,-2.00
2022-12-13T08:49:17.331Z,-2.20
2022-12-13T08:51:44.428Z,-2.20
2022-12-13T08:54:11.737Z,-2.20
2022-12-13T08:56:38.595Z,-2.10
2022-12-13T08:59:10.632Z,-2.00
2022-12-13T09:01:37.396Z,-1.80
2022-12-13T09:04:06.198Z,-1.70
2022-12-13T09:06:35.452Z,-1.60
2022-12-13T09:09:03.609Z,-1.50
2022-12-13T09:11:33.211Z,-1.50
2022-12-13T09:14:03.698Z,-1.50
2022-12-13T09:16:35.951Z,-1.70
2022-12-13T09:19:24.600Z,-1.50
2022-12-13T09:21:51.546Z,-1.50
2022-12-13T09:24:24.718Z,-1.50
2022-12-13T09:26:56.994Z,-1.30
2022-12-13T09:29:25.041Z,-1.20
2022-12-13T09:31:53.365Z,-1.10
2022-12-13T09:34:20.456Z,-0.90
2022-12-13T09:36:47.220Z,-0.40
2022-12-13T09:39:14.018Z,-0.70
2022-12-13T09:42:00.686Z,-0.70
2022-12-13T09:44:43.646Z,-0.80
2022-12-13T09:47:35.137Z,-0.90
2022-12-13T09:50:18.573Z,-1.00
2022-12-13T09:52:52.236Z,-1.00
2022-12-13T09:55:39.138Z,-1.00
2022-12-13T09:58:27.747Z,-0.90
2022-12-13T10:00:56.561Z,-0.80
2022-12-13T10:03:25.737Z,-0.70
2022-12-13T10:06:01.394Z,-0.60
2022-12-13T10:08:42.786Z,-0.50
2022-12-13T10:11:13.954Z,-0.30
2022-12-13T10:13:50.386Z,-0.30
2022-12-13T10:16:48.921Z,-0.20
2022-12-13T10:19:28.481Z,0.00
2022-12-13T10:22:02.185Z,0.20
2022-12-13T10:24:47.060Z,0.50
2022-12-13T10:27:17.937Z,0.70
2022-12-13T10:30:10.844Z,0.80
2022-12-13T10:33:03.609Z,1.00
2022-12-13T10:35:32.653Z,1.00
2022-12-13T10:38:08.916Z,1.40
2022-12-13T10:40:38.439Z,1.30
2022-12-13T10:43:28.297Z,1.40
2022-12-13T10:45:59.898Z,1.50
2022-12-13T10:48:39.293Z,1.70
2022-12-13T10:51:15.358Z,1.60
2022-12-13T10:53:51.692Z,1.70
2022-12-13T10:56:22.602Z,1.90
2022-12-13T10:59:13.381Z,1.90
2022-12-13T11:01:44.434Z,2.10
2022-12-13T11:04:31.538Z,2.20
2022-12-13T11:07:01.346Z,2.40
2022-12-13T11:09:38.892Z,2.40
2022-12-13T11:12:16.561Z,2.40
2022-12-13T11:15:09.712Z,2.30
2022-12-13T11:17:47.203Z,2.30
2022-12-13T11:20:21.803Z,2.40
2022-12-13T11:22:49.527Z,2.50
2022-12-13T11:25:21.265Z,2.50
2022-12-13T11:27:56.164Z,2.50
2022-12-13T11:30:41.419Z,2.50
2022-12-13T11:33:33.259Z,2.40
2022-12-13T11:36:25.674Z,2.50
2022-12-13T11:38:58.057Z,2.60
2022-12-13T11:41:38.768Z,2.60
2022-12-13T11:44:26.225Z,2.90
2022-12-13T11:46:56.846Z,2.60
2022-12-13T11:49:40.653Z,2.70
2022-12-13T11:52:28.396Z,2.70
2022-12-13T11:55:08.990Z,2.70
2022-12-13T11:57:46.489Z,2.80
2022-12-13T12:00:34.138Z,2.80
2022-12-13T12:03:19.521Z,2.80
2022-12-13T12:05:56.203Z,2.80
2022-12-13T12:09:04.135Z,2.70
2022-12-13T12:12:02.152Z,2.50
2022-12-13T12:14:41.665Z,2.40
2022-12-13T12:17:20.269Z,2.50
2022-12-13T12:19:51.764Z,2.50
2022-12-13T12:22:35.252Z,2.50
2022-12-13T12:25:17.467Z,2.50
2022-12-13T12:28:01.982Z,2.50
2022-12-13T12:30:56.533Z,2.50
2022-12-13T12:33:49.114Z,2.40
2022-12-13T12:36:48.689Z,2.50
2022-12-13T12:39:51.720Z,2.50
2022-12-13T12:43:14.179Z,2.40
2022-12-13T12:45:55.827Z,2.30
2022-12-13T12:48:53.761Z,2.30
2022-12-13T12:51:53.188Z,2.30
2022-12-13T12:54:32.809Z,2.50
2022-12-13T12:57:18.537Z,2.50
2022-12-13T13:00:13.015Z,2.50
2022-12-13T13:02:55.215Z,2.40
2022-12-13T13:05:47.718Z,2.20
2022-12-13T13:08:32.083Z,2.20
2022-12-13T13:11:01.997Z,2.20
2022-12-13T13:13:46.115Z,2.10
2022-12-13T13:16:33.467Z,2.00
2022-12-13T13:19:04.844Z,2.20
2022-12-13T13:21:33.524Z,1.90
2022-12-13T13:24:09.280Z,1.80
2022-12-13T13:26:44.820Z,1.70
2022-12-13T13:29:28.357Z,1.70
2022-12-13T13:32:29.544Z,1.60
2022-12-13T13:35:32.261Z,1.60
2022-12-13T13:38:03.967Z,1.60
2022-12-13T13:40:34.454Z,1.60
2022-12-13T13:43:10.325Z,1.60
2022-12-13T13:46:03.326Z,1.60
2022-12-13T13:48:42.362Z,1.70
2022-12-13T13:51:49.442Z,1.70
2022-12-13T13:54:38.896Z,1.70
2022-12-13T13:58:08.873Z,1.70
2022-12-13T14:00:58.431Z,1.60
2022-12-13T14:03:41.197Z,1.50
2022-12-13T14:06:50.870Z,1.50
2022-12-13T14:09:32.820Z,1.40
2022-12-13T14:12:42.347Z,1.30
2022-12-13T14:15:34.405Z,1.40
2022-12-13T14:18:07.033Z,1.50
2022-12-13T14:21:04.970Z,1.50
2022-12-13T14:23:44.751Z,1.50
2022-12-13T14:26:38.559Z,1.40
2022-12-13T14:29:11.293Z,1.30
2022-12-13T14:31:42.749Z,1.10
2022-12-13T14:34:37.040Z,1.10
2022-12-13T14:37:06.169Z,1.00
2022-12-13T14:39:34.683Z,1.00
2022-12-13T14:42:21.445Z,0.90
2022-12-13T14:44:48.204Z,0.90
2022-12-13T14:47:14.943Z,0.80
2022-12-13T14:49:48.998Z,0.80
2022-12-13T14:52:33.150Z,0.70
2022-12-13T14:55:00.858Z,0.60
2022-12-13T14:57:29.604Z,0.50
2022-12-13T14:59:59.761Z,0.50
2022-12-13T15:02:31.847Z,0.40
2022-12-13T15:05:03.834Z,0.40
2022-12-13T15:07:41.805Z,0.40
2022-12-13T15:10:14.850Z,0.40
2022-12-13T15:12:43.321Z,0.40
2022-12-13T15:15:25.236Z,0.30
2022-12-13T15:18:25.986Z,0.30
2022-12-13T15:21:23.296Z,0.30
2022-12-13T15:24:02.341Z,0.30
2022-12-13T15:26:33.786Z,0.30
2022-12-13T15:29:09.470Z,0.30
2022-12-13T15:31:37.897Z,0.30
2022-12-13T15:34:29.939Z,0.30
2022-12-13T15:37:05.426Z,0.20
2022-12-13T15:39:37.732Z,0.90
2022-12-13T15:42:04.872Z,0.10
2022-12-13T15:44:38.804Z,0.10
2022-12-13T15:47:12.253Z,0.00
2022-12-13T15:49:44.881Z,0.00
2022-12-13T15:52:14.609Z,0.00
2022-12-13T15:55:02.251Z,0.00
2022-12-13T15:57:32.005Z,0.00
2022-12-13T16:00:17.122Z,0.00
2022-12-13T16:03:15.076Z,-0.10
2022-12-13T16:05:49.957Z,-0.10
2022-12-13T16:08:28.914Z,0.00
2022-12-13T16:10:58.198Z,-0.10
2022-12-13T16:13:27.903Z,-0.10
2022-12-13T16:15:59.870Z,-0.10
2022-12-13T16:18:54.072Z,-0.10
2022-12-13T16:21:21.085Z,-0.10
2022-12-13T16:23:49.207Z,-0.10
2022-12-13T16:26:26.011Z,-0.20
2022-12-13T16:29:00.152Z,-0.20
2022-12-13T16:31:35.969Z,0.10
2022-12-13T16:34:05.105Z,-0.10
2022-12-13T16:36:32.405Z,-0.10
2022-12-13T16:38:59.354Z,-0.20
2022-12-13T16:41:26.268Z,-0.20
2022-12-13T16:44:01.957Z,-0.20
2022-12-13T16:47:14.552Z,-0.30
2022-12-13T16:49:20.455Z,-0.20
2022-12-13T16:51:48.899Z,-0.20
2022-12-13T16:54:19.596Z,-0.20
2022-12-13T16:56:46.961Z,0.00
2022-12-13T16:59:16.120Z,-0.20
2022-12-13T17:01:43.801Z,-0.20
2022-12-13T17:04:17.879Z,-0.20
2022-12-13T17:06:48.879Z,-0.20
2022-12-13T17:09:15.711Z,-0.10
2022-12-13T17:11:42.469Z,-0.20
2022-12-13T17:14:09.398Z,-0.10
2022-12-13T17:16:36.376Z,-0.10
2022-12-13T17:19:03.521Z,-0.10
2022-12-13T17:21:30.276Z,-0.10
2022-12-13T17:23:58.241Z,-0.10
2022-12-13T17:26:26.462Z,-0.10
2022-12-13T17:28:53.484Z,-0.10
2022-12-13T17:31:20.985Z,-0.10
2022-12-13T17:33:47.953Z,-0.10
2022-12-13T17:36:15.969Z,-0.10
2022-12-13T17:38:47.342Z,-0.10
2022-12-13T17:41:15.364Z,0.00
2022-12-13T17:43:43.677Z,0.00
2022-12-13T17:46:14.170Z,0.00
2022-12-13T17:48:41.897Z,0.00
2022-12-13T17:51:10.596Z,0.70
2022-12-13T17:53:39.630Z,0.00
2022-12-13T17:56:08.943Z,-0.10
2022-12-13T17:58:35.962Z,-0.10
2022-12-13T18:01:11.914Z,-0.10
2022-12-13T18:03:38.932Z,-0.10
2022-12-13T18:06:09.241Z,-0.10
2022-12-13T18:08:41.038Z,-0.10
2022-12-13T18:11:31.875Z,-0.10
2022-12-13T18:13:56.062Z,-0.10
2022-12-13T18:16:30.425Z,-0.10
2022-12-13T18:19:03.441Z,-0.20
2022-12-13T18:21:30.341Z,-0.20
2022-12-13T18:23:59.141Z,-0.20
2022-12-13T18:26:26.039Z,-0.20
2022-12-13T18:28:52.888Z,-0.20
2022-12-13T18:31:22.961Z,-0.20
2022-12-13T18:33:51.571Z,-0.30
2022-12-13T18:36:19.968Z,-0.20
2022-12-13T18:38:47.696Z,-0.30
2022-12-13T18:41:20.960Z,-0.30
2022-12-13T18:43:49.452Z,-0.30
2022-12-13T18:46:17.629Z,-0.30
2022-12-13T18:48:47.093Z,-0.30
2022-12-13T18:51:15.270Z,-0.30
2022-12-13T18:53:42.299Z,-0.20
2022-12-13T18:56:18.688Z,-0.20
2022-12-13T18:58:48.198Z,-0.30
2022-12-13T19:01:18.898Z,-0.30
2022-12-13T19:03:55.629Z,-0.30
2022-12-13T19:06:26.239Z,-0.30
2022-12-13T19:08:56.527Z,-0.30
2022-12-13T19:11:27.208Z,-0.20
2022-12-13T19:13:54.575Z,-0.20
2022-12-13T19:16:24.181Z,-0.30
2022-12-13T19:18:54.549Z,-0.20
2022-12-13T19:21:25.109Z,-0.20
2022-12-13T19:23:58.397Z,-0.30
2022-12-13T19:26:26.478Z,-0.20
2022-12-13T19:28:53.416Z,-0.20
2022-12-13T19:31:23.158Z,0.00
2022-12-13T19:33:55.216Z,-0.10
2022-12-13T19:36:26.450Z,0.10
2022-12-13T19:38:57.163Z,-0.20
2022-12-13T19:41:27.043Z,0.00
2022-12-13T19:43:56.249Z,-0.20
2022-12-13T19:46:24.380Z,0.00
2022-12-13T19:48:51.934Z,-0.30
2022-12-13T19:51:18.798Z,-0.30
2022-12-13T19:53:47.140Z,-0.20
2022-12-13T19:56:17.580Z,-0.30
2022-12-13T19:58:45.848Z,0.20
2022-12-13T20:01:13.334Z,-0.40
2022-12-13T20:03:43.825Z,0.10
2022-12-13T20:06:12.787Z,-0.40
2022-12-13T20:08:42.196Z,-0.40
2022-12-13T20:11:15.173Z,-0.30
2022-12-13T20:13:41.957Z,-0.30
2022-12-13T20:16:18.076Z,-0.30
2022-12-13T20:18:46.047Z,-0.70
2022-12-13T20:21:16.794Z,-0.30
2022-12-13T20:23:49.298Z,-0.30
2022-12-13T20:26:19.895Z,-0.60
2022-12-13T20:28:47.389Z,-0.30
2022-12-13T20:31:17.086Z,-0.30
2022-12-13T20:33:44.170Z,-0.30
2022-12-13T20:36:24.267Z,-0.30
2022-12-13T20:38:55.614Z,-0.30
2022-12-13T20:41:25.659Z,-0.30
2022-12-13T20:43:54.307Z,-0.40
2022-12-13T20:46:21.823Z,-0.30
2022-12-13T20:48:49.457Z,0.50
2022-12-13T20:51:24.307Z,-0.40
2022-12-13T20:53:53.083Z,-0.40
2022-12-13T20:56:26.749Z,-0.50
2022-12-13T20:58:53.977Z,-0.50
2022-12-13T21:01:26.364Z,-0.50
2022-12-13T21:03:55.109Z,-0.60
2022-12-13T21:06:22.651Z,-0.60
2022-12-13T21:08:52.857Z,-0.20
2022-12-13T21:11:31.765Z,-0.60
2022-12-13T21:14:21.435Z,-0.60
2022-12-13T21:16:54.419Z,-0.60
2022-12-13T21:19:39.013Z,-0.60
2022-12-13T21:22:08.216Z,-0.60
2022-12-13T21:24:38.446Z,-0.60
2022-12-13T21:27:05.641Z,-0.60
2022-12-13T21:29:32.425Z,-0.60
2022-12-13T21:31:59.271Z,-0.60
2022-12-13T21:34:26.180Z,-0.50
2022-12-13T21:36:53.117Z,-0.50
2022-12-13T21:39:28.388Z,-0.60
2022-12-13T21:41:57.900Z,-0.60
2022-12-13T21:44:25.088Z,-0.60
2022-12-13T21:47:11.952Z,-0.60
2022-12-13T21:49:40.077Z,-0.40
2022-12-13T21:52:06.921Z,-0.60
2022-12-13T21:54:33.885Z,-0.60
2022-12-13T21:57:19.295Z,-0.60
2022-12-13T21:59:47.258Z,-0.70
2022-12-13T22:02:18.360Z,-0.70
2022-12-13T22:04:52.621Z,-0.70
2022-12-13T22:07:27.021Z,-0.70
2022-12-13T22:09:55.041Z,-0.80
2022-12-13T22:12:36.676Z,-0.70
2022-12-13T22:15:06.533Z,-0.80
2022-12-13T22:17:35.994Z,-0.80
2022-12-13T22:20:09.420Z,-0.90
2022-12-13T22:22:39.954Z,-0.90
2022-12-13T22:25:07.906Z,-1.00
2022-12-13T22:27:41.946Z,-1.00
2022-12-13T22:30:10.455Z,-1.00
2022-12-13T22:32:37.401Z,-1.00
2022-12-13T22:35:04.754Z,-1.00
2022-12-13T22:37:32.207Z,-1.10
2022-12-13T22:39:59.152Z,-1.10
2022-12-13T22:42:27.467Z,-0.80
2022-12-13T22:44:55.167Z,-0.70
2022-12-13T22:47:21.969Z,-0.90
2022-12-13T22:49:49.145Z,-0.90
2022-12-13T22:52:18.388Z,-0.70
2022-12-13T22:54:45.321Z,-0.90
2022-12-13T22:57:13.557Z,-0.40
2022-12-13T22:59:40.433Z,-0.40
2022-12-13T23:02:09.649Z,-0.80
2022-12-13T23:04:37.525Z,-0.70
2022-12-13T23:07:04.337Z,-0.60
2022-12-13T23:09:31.148Z,-0.50
2022-12-13T23:12:16.719Z,-0.50
2022-12-13T23:14:43.653Z,-0.20
2022-12-13T23:17:10.601Z,-0.50
2022-12-13T23:19:50.704Z,-0.50
2022-12-13T23:22:22.402Z,-0.40
2022-12-13T23:24:53.667Z,-0.50
2022-12-13T23:27:22.841Z,-0.50
2022-12-13T23:29:50.171Z,-0.50
2022-12-13T23:32:18.643Z,-0.30
2022-12-13T23:34:45.425Z,-0.50
2022-12-13T23:37:13.658Z,-0.40
2022-12-13T23:39:41.386Z,-0.40
2022-12-13T23:42:08.106Z,-0.40
2022-12-13T23:44:34.984Z,-0.50
2022-12-13T23:47:01.746Z,-0.40
2022-12-13T23:49:29.017Z,-0.50
2022-12-13T23:51:57.000Z,-0.60
2022-12-13T23:54:23.913Z,-0.70
2022-12-13T23:56:50.830Z,-0.80
2022-12-13T23:59:18.785Z,-0.80
